createdAt,value
2023-02-26T00:02:38.766Z,2.40
2023-02-26T00:05:42.881Z,3.10
2023-02-26T00:08:46.790Z,2.60
2023-02-26T00:11:51.035Z,1.40
2023-02-26T00:14:55.657Z,2.70
2023-02-26T00:21:08.046Z,1.90
2023-02-26T00:24:12.030Z,3.00
2023-02-26T00:27:16.004Z,1.80
2023-02-26T00:30:20.810Z,2.70
2023-02-26T00:33:25.342Z,2.50
2023-02-26T00:36:58.538Z,2.30
2023-02-26T00:40:23.669Z,2.70
2023-02-26T00:43:28.178Z,2.10
2023-02-26T00:46:38.794Z,2.00
2023-02-26T00:49:54.871Z,2.40
2023-02-26T00:53:37.615Z,2.40
2023-02-26T00:56:41.572Z,1.80
2023-02-26T00:59:45.464Z,2.10
2023-02-26T01:02:51.001Z,1.60
2023-02-26T01:05:55.473Z,2.10
2023-02-26T01:09:14.391Z,2.10
2023-02-26T01:12:18.972Z,2.40
2023-02-26T01:15:26.424Z,1.90
2023-02-26T01:18:42.409Z,1.70
2023-02-26T01:21:55.330Z,2.40
2023-02-26T01:28:15.306Z,2.40
2023-02-26T01:34:51.846Z,1.60
2023-02-26T01:38:06.613Z,1.50
2023-02-26T01:41:43.380Z,1.80
2023-02-26T01:45:03.255Z,1.50
2023-02-26T01:48:17.234Z,1.90
2023-02-26T01:51:46.883Z,1.70
2023-02-26T01:54:50.969Z,2.30
2023-02-26T01:57:59.268Z,2.10
2023-02-26T02:01:04.064Z,1.70
2023-02-26T02:04:14.748Z,2.10
2023-02-26T02:07:19.135Z,2.70
2023-02-26T02:10:23.930Z,1.80
2023-02-26T02:13:59.509Z,1.90
2023-02-26T02:17:10.994Z,2.30
2023-02-26T02:20:33.711Z,2.10
2023-02-26T02:24:04.680Z,2.20
2023-02-26T02:27:13.727Z,1.90
2023-02-26T02:30:32.795Z,2.30
2023-02-26T02:33:47.497Z,9.20
2023-02-26T02:37:14.543Z,10.60
2023-02-26T02:40:23.354Z,4.30
2023-02-26T02:43:32.648Z,5.10
2023-02-26T02:46:40.633Z,3.80
2023-02-26T02:49:50.604Z,4.00
2023-02-26T02:53:00.712Z,2.10
2023-02-26T02:56:15.744Z,2.20
2023-02-26T02:59:31.066Z,2.20
2023-02-26T03:03:11.081Z,1.50
2023-02-26T03:06:15.055Z,2.20
2023-02-26T03:09:19.362Z,3.10
2023-02-26T03:12:26.549Z,2.40
2023-02-26T03:15:40.044Z,1.90
2023-02-26T03:19:15.570Z,2.20
2023-02-26T03:22:49.198Z,2.60
2023-02-26T03:26:11.648Z,2.30
2023-02-26T03:29:25.042Z,2.50
2023-02-26T03:32:36.983Z,2.10
2023-02-26T03:36:04.778Z,2.60
2023-02-26T03:39:20.542Z,2.50
2023-02-26T03:42:32.309Z,2.60
2023-02-26T03:45:41.374Z,2.50
2023-02-26T03:48:48.451Z,2.40
2023-02-26T03:51:53.965Z,2.40
2023-02-26T03:55:20.718Z,2.40
2023-02-26T03:58:34.139Z,2.20
2023-02-26T04:02:22.239Z,2.70
2023-02-26T04:05:35.135Z,6.20
2023-02-26T04:08:40.491Z,4.80
2023-02-26T04:11:46.551Z,3.80
2023-02-26T04:14:51.083Z,6.50
2023-02-26T04:20:59.259Z,5.00
2023-02-26T04:24:04.185Z,5.90
2023-02-26T04:27:08.404Z,6.40
2023-02-26T04:30:12.880Z,7.00
2023-02-26T04:33:17.438Z,4.70
2023-02-26T04:36:21.695Z,9.70
2023-02-26T04:39:25.679Z,7.90
2023-02-26T04:42:29.657Z,3.70
2023-02-26T04:45:33.675Z,3.00
2023-02-26T04:48:38.527Z,2.80
2023-02-26T04:51:42.635Z,2.90
2023-02-26T04:54:47.975Z,2.90
2023-02-26T04:57:53.254Z,3.20
2023-02-26T05:01:00.407Z,2.30
2023-02-26T05:04:04.408Z,3.00
2023-02-26T05:07:08.917Z,2.70
2023-02-26T05:10:13.194Z,2.60
2023-02-26T05:13:17.477Z,2.80
2023-02-26T05:16:21.443Z,3.70
2023-02-26T05:19:25.567Z,6.60
2023-02-26T05:22:29.665Z,11.60
2023-02-26T05:25:33.855Z,13.80
2023-02-26T05:28:38.338Z,5.60
2023-02-26T05:31:42.919Z,15.70
2023-02-26T05:34:47.814Z,13.30
2023-02-26T05:37:51.902Z,10.80
2023-02-26T05:40:58.098Z,4.10
2023-02-26T05:44:02.794Z,5.10
2023-02-26T05:50:11.900Z,3.30
2023-02-26T05:53:16.348Z,1.70
2023-02-26T05:56:20.435Z,1.70
2023-02-26T05:59:24.605Z,1.90
2023-02-26T06:02:28.618Z,2.10
2023-02-26T06:05:32.619Z,1.90
2023-02-26T06:08:36.651Z,1.90
2023-02-26T06:11:40.870Z,2.70
2023-02-26T06:14:44.889Z,2.30
2023-02-26T06:17:49.204Z,2.00
2023-02-26T06:20:53.226Z,1.40
2023-02-26T06:23:57.241Z,1.80
2023-02-26T06:27:01.217Z,2.00
2023-02-26T06:30:06.363Z,1.70
2023-02-26T06:33:10.426Z,1.50
2023-02-26T06:36:14.457Z,1.40
2023-02-26T06:39:18.572Z,1.50
2023-02-26T06:42:23.328Z,1.50
2023-02-26T06:48:31.611Z,1.20
2023-02-26T06:51:35.822Z,1.60
2023-02-26T06:54:39.870Z,1.60
2023-02-26T06:57:43.880Z,2.20
2023-02-26T07:00:47.948Z,1.50
2023-02-26T07:03:52.104Z,1.20
2023-02-26T07:06:56.015Z,1.70
2023-02-26T07:10:00.066Z,1.50
2023-02-26T07:13:04.631Z,1.60
2023-02-26T07:16:08.651Z,1.90
2023-02-26T07:19:12.702Z,1.60
2023-02-26T07:22:19.819Z,3.10
2023-02-26T07:25:25.560Z,1.90
2023-02-26T07:28:29.513Z,2.40
2023-02-26T07:31:33.661Z,1.90
2023-02-26T07:34:37.727Z,1.90
2023-02-26T07:37:41.708Z,1.80
2023-02-26T07:40:45.648Z,0.80
2023-02-26T07:43:49.849Z,2.10
2023-02-26T07:46:53.861Z,1.10
2023-02-26T07:49:57.875Z,1.80
2023-02-26T07:53:01.917Z,1.30
2023-02-26T07:56:05.921Z,1.90
2023-02-26T07:59:10.898Z,1.70
2023-02-26T08:05:18.936Z,1.40
2023-02-26T08:08:22.889Z,5.00
2023-02-26T08:11:27.030Z,4.00
2023-02-26T08:14:31.330Z,3.80
2023-02-26T08:17:35.450Z,5.60
2023-02-26T08:20:39.832Z,2.80
2023-02-26T08:23:43.937Z,2.10
2023-02-26T08:26:48.293Z,1.70
2023-02-26T08:29:52.430Z,1.90
2023-02-26T08:32:57.067Z,2.20
2023-02-26T08:36:01.736Z,2.40
2023-02-26T08:39:07.064Z,2.10
2023-02-26T08:42:12.399Z,1.50
2023-02-26T08:45:16.370Z,2.30
2023-02-26T08:48:20.589Z,2.30
2023-02-26T08:51:25.053Z,2.40
2023-02-26T08:54:29.271Z,1.90
2023-02-26T08:57:33.284Z,1.50
2023-02-26T09:00:37.228Z,2.20
2023-02-26T09:03:41.325Z,1.90
2023-02-26T09:06:45.642Z,1.70
2023-02-26T09:09:49.655Z,3.00
2023-02-26T09:12:53.889Z,1.70
2023-02-26T09:15:58.041Z,1.20
2023-02-26T09:19:02.376Z,1.40
2023-02-26T09:22:06.514Z,1.60
2023-02-26T09:25:11.353Z,1.60
2023-02-26T09:28:15.407Z,2.30
2023-02-26T09:31:19.444Z,4.60
2023-02-26T09:34:23.519Z,2.60
2023-02-26T09:37:27.643Z,3.40
2023-02-26T09:40:46.210Z,2.60
2023-02-26T09:44:05.353Z,2.00
2023-02-26T09:47:27.019Z,3.40
2023-02-26T09:50:41.052Z,2.90
2023-02-26T09:53:47.109Z,2.40
2023-02-26T09:56:53.642Z,2.60
2023-02-26T10:00:00.511Z,2.60
2023-02-26T10:03:04.564Z,3.20
2023-02-26T10:06:35.654Z,4.00
2023-02-26T10:09:55.949Z,3.00
2023-02-26T10:13:00.601Z,2.40
2023-02-26T10:16:32.290Z,4.70
2023-02-26T10:19:43.329Z,3.70
2023-02-26T10:23:03.727Z,3.00
2023-02-26T10:26:25.044Z,2.60
2023-02-26T10:30:03.843Z,4.30
2023-02-26T10:33:29.625Z,2.10
2023-02-26T10:37:01.457Z,2.30
2023-02-26T10:40:18.073Z,3.00
2023-02-26T10:44:02.738Z,3.40
2023-02-26T10:47:15.376Z,3.30
2023-02-26T10:50:22.506Z,2.00
2023-02-26T10:53:30.348Z,2.90
2023-02-26T10:56:34.728Z,2.60
2023-02-26T10:59:39.197Z,3.50
2023-02-26T11:02:46.730Z,2.30
2023-02-26T11:05:50.813Z,2.50
2023-02-26T11:08:57.496Z,2.60
2023-02-26T11:12:15.238Z,2.00
2023-02-26T11:15:25.800Z,2.80
2023-02-26T11:21:47.034Z,2.60
2023-02-26T11:24:52.349Z,2.20
2023-02-26T11:28:25.998Z,3.20
2023-02-26T11:31:30.819Z,2.60
2023-02-26T11:34:36.610Z,2.00
2023-02-26T11:37:42.358Z,2.90
2023-02-26T11:40:50.150Z,3.00
2023-02-26T11:44:03.374Z,2.60
2023-02-26T11:47:14.024Z,2.60
2023-02-26T11:50:23.154Z,2.50
2023-02-26T11:53:35.161Z,2.20
2023-02-26T11:56:42.295Z,2.20
2023-02-26T11:59:50.491Z,4.40
2023-02-26T12:03:02.185Z,3.30
2023-02-26T12:06:16.347Z,2.00
2023-02-26T12:09:21.251Z,2.00
2023-02-26T12:12:46.493Z,2.30
2023-02-26T12:16:05.582Z,1.50
2023-02-26T12:19:18.027Z,1.20
2023-02-26T12:22:49.324Z,1.60
2023-02-26T12:26:11.448Z,2.20
2023-02-26T12:29:34.432Z,2.70
2023-02-26T12:32:50.839Z,2.40
2023-02-26T12:39:46.526Z,2.40
2023-02-26T12:43:08.511Z,2.60
2023-02-26T12:46:18.646Z,2.00
2023-02-26T12:49:39.694Z,1.80
2023-02-26T12:52:43.617Z,5.70
2023-02-26T12:56:09.651Z,2.50
2023-02-26T12:59:37.891Z,2.10
2023-02-26T13:09:33.504Z,2.20
2023-02-26T13:12:49.402Z,2.00
2023-02-26T13:16:22.884Z,1.70
2023-02-26T13:19:43.360Z,2.10
2023-02-26T13:22:52.607Z,2.60
2023-02-26T13:26:01.364Z,2.80
2023-02-26T13:29:15.072Z,2.70
2023-02-26T13:32:23.948Z,3.70
2023-02-26T13:35:42.107Z,2.80
2023-02-26T13:39:21.542Z,4.00
2023-02-26T13:42:33.583Z,3.80
2023-02-26T13:45:46.890Z,4.50
2023-02-26T13:49:04.806Z,14.60
2023-02-26T13:52:24.423Z,2.30
2023-02-26T13:55:42.318Z,5.30
2023-02-26T13:58:55.473Z,2.40
2023-02-26T14:02:36.390Z,2.30
2023-02-26T14:05:49.163Z,1.50
2023-02-26T14:08:58.543Z,3.30
2023-02-26T14:12:02.457Z,2.30
2023-02-26T14:15:12.583Z,2.40
2023-02-26T14:18:26.824Z,3.30
2023-02-26T14:21:30.842Z,2.10
2023-02-26T14:24:39.081Z,2.20
2023-02-26T14:27:46.662Z,3.10
2023-02-26T14:30:59.679Z,3.30
2023-02-26T14:34:20.603Z,2.70
2023-02-26T14:37:27.543Z,3.60
2023-02-26T14:40:47.985Z,2.90
2023-02-26T14:44:07.417Z,2.70
2023-02-26T14:47:12.716Z,1.80
2023-02-26T14:50:19.590Z,2.30
2023-02-26T14:53:41.610Z,1.60
2023-02-26T14:57:07.267Z,2.20
2023-02-26T15:00:23.986Z,3.60
2023-02-26T15:03:53.675Z,3.80
2023-02-26T15:10:40.262Z,2.00
2023-02-26T15:13:46.918Z,1.80
2023-02-26T15:17:20.928Z,2.10
2023-02-26T15:20:44.511Z,1.50
2023-02-26T15:23:54.371Z,1.80
2023-02-26T15:27:04.389Z,2.60
2023-02-26T15:30:14.983Z,2.10
2023-02-26T15:33:21.317Z,1.80
2023-02-26T15:36:27.390Z,2.10
2023-02-26T15:39:31.615Z,2.60
2023-02-26T15:42:40.054Z,2.70
2023-02-26T15:45:48.209Z,2.50
2023-02-26T15:48:52.658Z,3.20
2023-02-26T15:51:58.840Z,2.80
2023-02-26T15:55:05.871Z,3.00
2023-02-26T15:58:10.436Z,2.80
2023-02-26T16:01:17.411Z,3.90
2023-02-26T16:04:23.423Z,4.40
2023-02-26T16:07:27.465Z,2.90
2023-02-26T16:10:42.170Z,3.30
2023-02-26T16:13:49.407Z,3.00
2023-02-26T16:16:55.346Z,2.50
2023-02-26T16:20:03.569Z,3.20
2023-02-26T16:23:13.921Z,3.90
2023-02-26T16:26:22.861Z,4.60
2023-02-26T16:29:33.318Z,3.40
2023-02-26T16:32:37.438Z,2.70
2023-02-26T16:35:53.318Z,3.70
2023-02-26T16:39:20.204Z,3.10
2023-02-26T16:42:45.777Z,3.00
2023-02-26T16:45:54.615Z,3.10
2023-02-26T16:49:02.850Z,5.80
2023-02-26T16:52:07.451Z,5.50
2023-02-26T16:55:18.486Z,9.30
2023-02-26T16:58:23.887Z,11.60
2023-02-26T17:01:28.661Z,10.80
2023-02-26T17:07:49.355Z,13.50
2023-02-26T17:11:21.958Z,4.20
2023-02-26T17:14:27.390Z,13.30
2023-02-26T17:17:31.522Z,16.80
2023-02-26T17:20:36.742Z,19.40
2023-02-26T17:23:40.663Z,28.20
2023-02-26T17:26:45.807Z,30.90
2023-02-26T17:29:51.227Z,32.40
2023-02-26T17:32:55.817Z,39.30
2023-02-26T17:36:01.739Z,40.60
2023-02-26T17:39:05.882Z,42.10
2023-02-26T17:42:15.581Z,47.60
2023-02-26T17:45:20.519Z,40.20
2023-02-26T17:48:25.516Z,33.10
2023-02-26T17:51:30.026Z,39.10
2023-02-26T17:54:34.149Z,32.40
2023-02-26T17:57:38.360Z,28.70
2023-02-26T18:00:43.823Z,27.30
2023-02-26T18:03:47.868Z,26.70
2023-02-26T18:06:51.962Z,26.90
2023-02-26T18:09:55.983Z,23.80
2023-02-26T18:13:00.200Z,13.90
2023-02-26T18:16:05.606Z,18.90
2023-02-26T18:19:13.887Z,15.50
2023-02-26T18:22:25.347Z,14.20
2023-02-26T18:25:30.210Z,10.00
2023-02-26T18:31:38.619Z,7.60
2023-02-26T18:34:43.268Z,12.00
2023-02-26T18:37:47.731Z,10.30
2023-02-26T18:40:53.760Z,7.80
2023-02-26T18:43:57.776Z,9.00
2023-02-26T18:47:01.881Z,7.00
2023-02-26T18:50:07.315Z,9.40
2023-02-26T18:53:12.144Z,9.00
2023-02-26T18:56:16.102Z,12.30
2023-02-26T18:59:20.205Z,12.50
2023-02-26T19:02:25.034Z,14.90
2023-02-26T19:05:29.065Z,13.60
2023-02-26T19:08:33.476Z,14.40
2023-02-26T19:11:38.222Z,12.20
2023-02-26T19:14:42.220Z,11.70
2023-02-26T19:17:46.525Z,10.70
2023-02-26T19:20:51.988Z,8.80
2023-02-26T19:23:55.904Z,7.40
2023-02-26T19:26:59.925Z,8.50
2023-02-26T19:30:06.154Z,8.10
2023-02-26T19:33:10.162Z,9.10
2023-02-26T19:36:14.134Z,7.80
2023-02-26T19:39:21.518Z,8.20
2023-02-26T19:42:28.449Z,6.00
2023-02-26T19:45:32.632Z,7.30
2023-02-26T19:48:36.636Z,7.00
2023-02-26T19:51:40.956Z,7.30
2023-02-26T19:54:45.005Z,7.30
2023-02-26T19:57:49.395Z,7.10
2023-02-26T20:00:53.480Z,8.20
2023-02-26T20:03:57.525Z,7.40
2023-02-26T20:07:01.558Z,7.00
2023-02-26T20:10:06.461Z,6.30
2023-02-26T20:13:10.611Z,6.30
2023-02-26T20:16:16.020Z,5.90
2023-02-26T20:19:20.917Z,6.60
2023-02-26T20:22:25.008Z,7.10
2023-02-26T20:25:30.148Z,8.40
2023-02-26T20:28:34.574Z,6.50
2023-02-26T20:31:38.863Z,5.20
2023-02-26T20:34:43.014Z,4.90
2023-02-26T20:37:46.930Z,5.20
2023-02-26T20:40:51.355Z,4.00
2023-02-26T20:43:57.069Z,5.10
2023-02-26T20:47:02.772Z,5.50
2023-02-26T20:50:07.554Z,4.50
2023-02-26T20:53:11.615Z,5.20
2023-02-26T20:56:15.641Z,3.10
2023-02-26T20:59:20.059Z,4.60
2023-02-26T21:02:24.893Z,3.50
2023-02-26T21:08:33.742Z,2.20
2023-02-26T21:11:38.779Z,2.80
2023-02-26T21:14:43.614Z,2.90
2023-02-26T21:17:47.735Z,3.40
2023-02-26T21:20:51.729Z,3.10
2023-02-26T21:23:56.124Z,2.50
2023-02-26T21:27:00.077Z,3.10
2023-02-26T21:30:06.125Z,2.80
2023-02-26T21:33:10.168Z,2.70
2023-02-26T21:36:14.586Z,2.70
2023-02-26T21:39:18.513Z,2.70
2023-02-26T21:42:22.872Z,2.90
2023-02-26T21:45:26.823Z,2.80
2023-02-26T21:48:30.876Z,3.30
2023-02-26T21:51:36.302Z,2.50
2023-02-26T21:54:40.543Z,2.20
2023-02-26T21:57:44.555Z,4.10
2023-02-26T22:00:48.562Z,3.10
2023-02-26T22:03:52.779Z,2.70
2023-02-26T22:06:57.001Z,1.90
2023-02-26T22:10:01.027Z,3.50
2023-02-26T22:13:05.032Z,3.40
2023-02-26T22:16:09.455Z,1.70
2023-02-26T22:19:13.378Z,3.40
2023-02-26T22:22:17.389Z,3.40
2023-02-26T22:25:21.404Z,4.20
2023-02-26T22:28:25.508Z,3.40
2023-02-26T22:31:31.949Z,4.90
2023-02-26T22:34:36.836Z,3.40
2023-02-26T22:40:45.150Z,2.60
2023-02-26T22:43:53.815Z,3.90
2023-02-26T22:46:58.118Z,3.60
2023-02-26T22:50:02.134Z,3.60
2023-02-26T22:53:07.080Z,4.30
2023-02-26T22:56:11.121Z,4.50
2023-02-26T22:59:15.110Z,4.20
2023-02-26T23:02:19.119Z,3.50
2023-02-26T23:05:23.339Z,4.40
2023-02-26T23:08:27.883Z,3.10
2023-02-26T23:11:32.210Z,3.80
2023-02-26T23:14:36.684Z,3.40
2023-02-26T23:17:41.469Z,3.80
2023-02-26T23:20:46.267Z,2.40
2023-02-26T23:26:54.139Z,2.80
2023-02-26T23:29:58.083Z,3.40
2023-02-26T23:33:02.770Z,1.00
2023-02-26T23:36:07.301Z,3.40
2023-02-26T23:39:13.575Z,4.50
2023-02-26T23:42:17.688Z,4.20
2023-02-26T23:45:22.558Z,3.80
2023-02-26T23:48:27.561Z,3.10
2023-02-26T23:51:31.733Z,2.50
2023-02-26T23:54:35.706Z,3.60
2023-02-26T23:57:39.682Z,3.10
